| time (UTC) | temp F | wind direction | speed MPH | gust MPH | rain 1hr in | rain 24hr in | rain mn in | humidity % | barometer mb |
| 20260901044520 | 70 | 222 | 2.0 | 0.0 | 0.00 | 0.00 | 0.00 | 68 | 1004.1 |
| 20260901043051 | 71 | 171 | 2.0 | 0.0 | 0.00 | 0.00 | 0.00 | 65 | 1003.9 |
| 20260901041552 | 71 | 171 | 4.0 | 0.0 | 0.00 | 0.00 | 0.00 | 61 | 1003.6 |
| 20260901040015 | 71 | 183 | 5.0 | 0.0 | 0.00 | 0.00 | 0.00 | 63 | 1005.2 |
| 20260901034526 | 72 | 195 | 10.0 | 0.0 | 0.00 | 0.00 | 0.00 | 61 | 1006.8 |
| 20260901033038 | 74 | 202 | 15.0 | 0.0 | 0.00 | 0.00 | 0.00 | 56 | 1007.1 |
| 20260901031544 | 74 | 212 | 3.0 | 0.0 | 0.00 | 0.00 | 0.00 | 65 | 1006.8 |
| 20260901030038 | 74 | 229 | 3.0 | 0.0 | 0.00 | 0.00 | 0.00 | 65 | 1007.6 |
| 20260901024546 | 74 | 52 | 1.0 | 0.0 | 0.00 | 0.00 | 0.00 | 65 | 1006.9 |
| 20260901023016 | 75 | 52 | 4.0 | 0.0 | 0.00 | 0.00 | 0.00 | 63 | 1006.1 |
| 20260901021607 | 77 | 30 | 3.0 | 0.0 | 0.00 | 0.00 | 0.00 | 61 | 1005.9 |
| 20260901020112 | 79 | 66 | 7.0 | 0.0 | 0.00 | 0.00 | 0.00 | 54 | 1006.0 |
| 20260901014558 | 81 | 109 | 1.0 | 0.0 | 0.00 | 0.00 | 0.00 | 52 | 1005.1 |
| 20260901013028 | 82 | 162 | 1.0 | 0.0 | 0.00 | 0.00 | 0.00 | 49 | 1004.3 |
| 20260901011541 | 83 | 182 | 2.0 | 0.0 | 0.00 | 0.00 | 0.00 | 48 | 1004.1 |
| 20260901010040 | 84 | 155 | 1.0 | 0.0 | 0.00 | 0.00 | 0.00 | 46 | 1004.1 |
| 20260901004528 | 85 | 120 | 1.0 | 0.0 | 0.00 | 0.00 | 0.00 | 45 | 1003.7 |
| 20260901003044 | 86 | 135 | 2.0 | 0.0 | 0.00 | 0.00 | 0.00 | 44 | 1003.7 |
| 20260901001557 | 87 | 142 | 3.0 | 0.0 | 0.00 | 0.00 | 0.00 | 42 | 1003.1 |
| 20260901000002 | 88 | 130 | 2.0 | 0.0 | 0.00 | 0.00 | 0.00 | 41 | 1003.2 |
| 20260831234510 | 89 | 134 | 3.0 | 0.0 | 0.00 | 0.00 | 0.00 | 40 | 1003.2 |
| 20260831233038 | 90 | 110 | 4.0 | 0.0 | 0.00 | 0.00 | 0.00 | 36 | 1003.1 |
| 20260831231544 | 92 | 79 | 5.0 | 0.0 | 0.00 | 0.00 | 0.00 | 31 | 1002.8 |
| 20260831230052 | 95 | 138 | 5.0 | 0.0 | 0.00 | 0.00 | 0.00 | 27 | 1002.3 |
| 20260831224558 | 96 | 89 | 3.0 | 0.0 | 0.00 | 0.00 | 0.00 | 26 | 1002.2 |
| 20260831223046 | 95 | 127 | 2.0 | 0.0 | 0.00 | 0.00 | 0.00 | 27 | 1002.7 |
| 20260831221553 | 94 | 138 | 2.0 | 0.0 | 0.00 | 0.00 | 0.00 | 28 | 1002.8 |
| 20260831220114 | 94 | 123 | 3.0 | 0.0 | 0.00 | 0.00 | 0.00 | 27 | 1002.9 |
| 20260831220002 | 94 | 137 | 3.0 | 0.0 | 0.00 | 0.00 | 0.00 | 28 | 1002.9 |
| 20260831214515 | 93 | 124 | 5.0 | 0.0 | 0.00 | 0.00 | 0.00 | 30 | 1003.2 |
| 20260831213028 | 94 | 96 | 3.0 | 0.0 | 0.00 | 0.00 | 0.00 | 29 | 1003.2 |
| 20260831211525 | 94 | 80 | 3.0 | 0.0 | 0.00 | 0.00 | 0.00 | 27 | 1003.3 |
| 20260831210031 | 93 | 207 | 2.0 | 0.0 | 0.00 | 0.00 | 0.00 | 29 | 1003.4 |
| 20260831204558 | 94 | 102 | 3.0 | 0.0 | 0.00 | 0.00 | 0.00 | 30 | 1003.9 |
| 20260831203027 | 94 | 90 | 2.0 | 0.0 | 0.00 | 0.00 | 0.00 | 31 | 1003.9 |
| 20260831201537 | 92 | 94 | 2.0 | 0.0 | 0.00 | 0.00 | 0.00 | 31 | 1004.3 |
| 20260831200038 | 92 | 127 | 3.0 | 0.0 | 0.00 | 0.00 | 0.00 | 32 | 1004.3 |
| 20260831194613 | 92 | 80 | 2.0 | 0.0 | 0.00 | 0.00 | 0.00 | 31 | 1004.3 |
| 20260831193051 | 92 | 200 | 1.0 | 0.0 | 0.00 | 0.00 | 0.00 | 30 | 1004.4 |
| 20260831191520 | 92 | 183 | 2.0 | 0.0 | 0.00 | 0.00 | 0.00 | 30 | 1004.5 |
| 20260831190010 | 91 | 190 | 2.0 | 0.0 | 0.00 | 0.00 | 0.00 | 32 | 1004.7 |
| 20260831184606 | 89 | 301 | 3.0 | 0.0 | 0.00 | 0.00 | 0.00 | 35 | 1004.9 |
| 20260831183106 | 89 | 286 | 4.0 | 0.0 | 0.00 | 0.00 | 0.00 | 35 | 1005.0 |
| 20260831183001 | 89 | 284 | 4.0 | 0.0 | 0.00 | 0.00 | 0.00 | 36 | 1005.0 |
| 20260831181523 | 88 | 199 | 3.0 | 0.0 | 0.00 | 0.00 | 0.00 | 35 | 1005.4 |
| 20260831180032 | 88 | 166 | 2.0 | 0.0 | 0.00 | 0.00 | 0.00 | 36 | 1005.8 |
| 20260831174533 | 87 | 244 | 2.0 | 0.0 | 0.00 | 0.00 | 0.00 | 40 | 1006.0 |
| 20260831173051 | 86 | 291 | 2.0 | 0.0 | 0.00 | 0.00 | 0.00 | 41 | 1006.0 |
| 20260831171559 | 85 | 189 | 4.0 | 0.0 | 0.00 | 0.00 | 0.00 | 41 | 1006.5 |
| 20260831171500 | 85 | 183 | 4.0 | 0.0 | 0.00 | 0.00 | 0.00 | 41 | 1006.5 |
| 20260831170019 | 85 | 172 | 2.0 | 0.0 | 0.00 | 0.00 | 0.00 | 41 | 1006.4 |
| 20260831164522 | 83 | 193 | 3.0 | 0.0 | 0.00 | 0.00 | 0.00 | 42 | 1006.7 |
| 20260831163016 | 81 | 183 | 3.0 | 0.0 | 0.00 | 0.00 | 0.00 | 48 | 1006.9 |
| 20260831161542 | 80 | 185 | 3.0 | 0.0 | 0.00 | 0.00 | 0.00 | 51 | 1007.1 |
| 20260831160054 | 78 | 188 | 2.0 | 0.0 | 0.00 | 0.00 | 0.00 | 54 | 1007.2 |
| 20260831154555 | 77 | 116 | 2.0 | 0.0 | 0.00 | 0.00 | 0.00 | 58 | 1007.3 |
| 20260831153004 | 76 | 222 | 3.0 | 0.0 | 0.00 | 0.00 | 0.00 | 61 | 1007.5 |
| 20260831151511 | 74 | 243 | 4.0 | 0.0 | 0.00 | 0.00 | 0.00 | 62 | 1007.6 |
| 20260831150029 | 73 | 223 | 5.0 | 0.0 | 0.00 | 0.00 | 0.00 | 64 | 1007.8 |
| 20260831144606 | 72 | 231 | 3.0 | 0.0 | 0.00 | 0.00 | 0.00 | 69 | 1007.9 |
| 20260831143054 | 71 | 248 | 2.0 | 0.0 | 0.00 | 0.00 | 0.00 | 72 | 1007.8 |
| 20260831141600 | 69 | 231 | 1.0 | 0.0 | 0.00 | 0.00 | 0.00 | 77 | 1008.0 |
| 20260831141502 | 69 | 231 | 1.0 | 0.0 | 0.00 | 0.00 | 0.00 | 77 | 1008.0 |
| 20260831140010 | 68 | 236 | 2.0 | 0.0 | 0.00 | 0.00 | 0.00 | 79 | 1006.3 |
| 20260831134512 | 67 | 250 | 2.0 | 0.0 | 0.00 | 0.00 | 0.00 | 82 | 1006.4 |
| 20260831133048 | 66 | 79 | 0.0 | 0.0 | 0.00 | 0.00 | 0.00 | 87 | 1006.4 |
| 20260831131518 | 65 | 277 | 2.0 | 0.0 | 0.00 | 0.00 | 0.00 | 88 | 1006.3 |
| 20260831130029 | 64 | 127 | 1.0 | 0.0 | 0.00 | 0.00 | 0.00 | 88 | 1005.7 |
| 20260831124506 | 64 | 205 | 1.0 | 0.0 | 0.00 | 0.00 | 0.00 | 88 | 1005.6 |
| 20260831123035 | 64 | 326 | 0.0 | 0.0 | 0.00 | 0.00 | 0.00 | 88 | 1005.4 |
| 20260831121548 | 64 | 326 | 0.0 | 0.0 | 0.00 | 0.00 | 0.00 | 87 | 1005.6 |
| 20260831120052 | 65 | 326 | 0.0 | 0.0 | 0.00 | 0.00 | 0.00 | 87 | 1004.7 |
| 20260831114558 | 65 | 326 | 0.0 | 0.0 | 0.00 | 0.00 | 0.00 | 87 | 1004.6 |
| 20260831113026 | 65 | 326 | 0.0 | 0.0 | 0.00 | 0.00 | 0.00 | 86 | 1004.2 |
| 20260831111520 | 65 | 326 | 0.0 | 0.0 | 0.00 | 0.00 | 0.00 | 86 | 1004.2 |
| 20260831110024 | 65 | 326 | 0.0 | 0.0 | 0.00 | 0.00 | 0.00 | 86 | 1003.6 |
| 20260831104530 | 65 | 326 | 1.0 | 0.0 | 0.00 | 0.00 | 0.00 | 86 | 1003.8 |
| 20260831103033 | 65 | 275 | 2.0 | 0.0 | 0.00 | 0.00 | 0.00 | 85 | 1003.9 |
| 20260831101545 | 65 | 282 | 4.0 | 0.0 | 0.00 | 0.00 | 0.00 | 85 | 1003.9 |
| 20260831100017 | 66 | 264 | 3.0 | 0.0 | 0.00 | 0.00 | 0.00 | 85 | 1003.7 |
| 20260831094526 | 66 | 217 | 3.0 | 0.0 | 0.00 | 0.00 | 0.00 | 85 | 1003.3 |
| 20260831093031 | 66 | 326 | 3.0 | 0.0 | 0.00 | 0.00 | 0.00 | 85 | 1002.1 |
| 20260831091524 | 66 | 70 | 2.0 | 0.0 | 0.00 | 0.00 | 0.00 | 84 | 1002.2 |
| 20260831090021 | 66 | 114 | 2.0 | 0.0 | 0.00 | 0.00 | 0.00 | 83 | 1003.2 |
| 20260831084538 | 67 | 134 | 3.0 | 0.0 | 0.00 | 0.00 | 0.00 | 82 | 1003.6 |
| 20260831083031 | 67 | 169 | 3.0 | 0.0 | 0.00 | 0.00 | 0.00 | 80 | 1003.9 |
| 20260831081623 | 67 | 199 | 3.0 | 0.0 | 0.00 | 0.00 | 0.00 | 79 | 1004.0 |
| 20260831080015 | 68 | 127 | 2.0 | 0.0 | 0.00 | 0.00 | 0.00 | 78 | 1003.9 |
| 20260831074545 | 68 | 213 | 2.0 | 0.0 | 0.00 | 0.00 | 0.00 | 77 | 1004.2 |
| 20260831073122 | 68 | 207 | 1.0 | 0.0 | 0.00 | 0.00 | 0.00 | 75 | 1003.8 |
| 20260831071555 | 69 | 222 | 5.0 | 0.0 | 0.00 | 0.00 | 0.00 | 72 | 1004.4 |
| 20260831070005 | 69 | 169 | 7.0 | 0.0 | 0.00 | 0.00 | 0.00 | 69 | 1004.7 |
| 20260831064520 | 69 | 186 | 6.0 | 0.0 | 0.00 | 0.00 | 0.00 | 71 | 1004.5 |
| 20260831063030 | 68 | 278 | 2.0 | 0.0 | 0.00 | 0.00 | 0.00 | 75 | 1003.7 |
| 20260831061541 | 68 | 330 | 3.0 | 0.0 | 0.00 | 0.00 | 0.00 | 73 | 1003.5 |
| 20260831060058 | 68 | 158 | 3.0 | 0.0 | 0.00 | 0.00 | 0.00 | 76 | 1003.4 |
| 20260831054508 | 68 | 234 | 1.0 | 0.0 | 0.00 | 0.00 | 0.00 | 77 | 1003.5 |
| 20260831053035 | 68 | 168 | 1.0 | 0.0 | 0.00 | 0.00 | 0.00 | 75 | 1003.7 |
| 20260831051541 | 68 | 212 | 3.0 | 0.0 | 0.00 | 0.00 | 0.00 | 72 | 1004.7 |
| 20260831050139 | 66 | 274 | 2.0 | 0.0 | 0.00 | 0.00 | 0.00 | 77 | 1005.1 |
| 20260831050004 | 66 | 246 | 2.0 | 0.0 | 0.00 | 0.00 | 0.00 | 78 | 1005.1 |